createdAt,value
2023-12-14T00:01:16.122Z,100452.59
2023-12-14T00:03:45.705Z,100482.28
2023-12-14T00:06:13.552Z,100478.88
2023-12-14T00:08:40.941Z,100481.53
2023-12-14T00:11:12.889Z,100464.81
2023-12-14T00:13:40.859Z,100470.97
2023-12-14T00:16:09.286Z,100466.59
2023-12-14T00:18:37.524Z,100466.63
2023-12-14T00:21:05.209Z,100460.50
2023-12-14T00:23:32.621Z,100458.88
2023-12-14T00:25:59.904Z,100457.06
2023-12-14T00:28:29.570Z,100463.22
2023-12-14T00:30:58.811Z,100477.97
2023-12-14T00:33:26.106Z,100477.16
2023-12-14T00:35:53.324Z,100477.16
2023-12-14T00:38:20.680Z,100469.22
2023-12-14T00:40:47.933Z,100471.06
2023-12-14T00:43:15.136Z,100481.53
2023-12-14T00:45:42.896Z,100471.91
2023-12-14T00:48:10.162Z,100475.47
2023-12-14T00:50:37.395Z,100471.19
2023-12-14T00:53:04.715Z,100459.75
2023-12-14T00:55:31.907Z,100462.50
2023-12-14T00:57:59.195Z,100471.97
2023-12-14T01:00:26.433Z,100457.03
2023-12-14T01:02:53.582Z,100455.25
2023-12-14T01:05:20.810Z,100478.03
2023-12-14T01:07:48.203Z,100482.47
2023-12-14T01:10:15.510Z,100488.69
2023-12-14T01:12:42.551Z,100466.81
2023-12-14T01:15:10.438Z,100467.63
2023-12-14T01:17:39.139Z,100471.97
2023-12-14T01:20:10.480Z,100472.81
2023-12-14T01:22:38.385Z,100457.13
2023-12-14T01:25:05.995Z,100450.97
2023-12-14T01:27:33.138Z,100456.91
2023-12-14T01:30:00.651Z,100451.63
2023-12-14T01:32:27.991Z,100437.78
2023-12-14T01:34:55.325Z,100453.38
2023-12-14T01:37:22.540Z,100434.22
2023-12-14T01:39:49.616Z,100451.63
2023-12-14T01:42:16.758Z,100434.22
2023-12-14T01:44:43.909Z,100432.34
2023-12-14T01:47:11.435Z,100437.59
2023-12-14T01:49:38.588Z,100435.00
2023-12-14T01:52:06.162Z,100437.63
2023-12-14T01:54:33.262Z,100444.50
2023-12-14T01:57:00.573Z,100433.03
2023-12-14T01:59:27.906Z,100433.91
2023-12-14T02:01:58.071Z,100434.75
2023-12-14T02:04:29.265Z,100438.28
2023-12-14T02:06:56.566Z,100433.03
2023-12-14T02:09:23.614Z,100435.75
2023-12-14T02:11:51.014Z,100412.13
2023-12-14T02:14:18.236Z,100426.06
2023-12-14T02:16:45.426Z,100426.19
2023-12-14T02:19:12.808Z,100400.03
2023-12-14T02:21:40.157Z,100413.25
2023-12-14T02:24:07.258Z,100419.34
2023-12-14T02:26:34.561Z,100427.22
2023-12-14T02:29:01.780Z,100420.16
2023-12-14T02:31:28.950Z,100413.16
2023-12-14T02:33:56.101Z,100407.91
2023-12-14T02:36:23.290Z,100402.72
2023-12-14T02:38:50.495Z,100403.53
2023-12-14T02:41:18.156Z,100386.84
2023-12-14T02:43:45.398Z,100399.03
2023-12-14T02:46:14.859Z,100370.22
2023-12-14T02:48:46.663Z,100380.78
2023-12-14T02:51:15.303Z,100393.75
2023-12-14T02:53:42.839Z,100401.66
2023-12-14T02:56:12.362Z,100406.94
2023-12-14T02:58:39.766Z,100399.91
2023-12-14T03:01:07.117Z,100405.13
2023-12-14T03:03:34.570Z,100388.56
2023-12-14T03:06:01.713Z,100407.88
2023-12-14T03:08:28.897Z,100389.63
2023-12-14T03:10:56.186Z,100410.69
2023-12-14T03:13:23.380Z,100383.66
2023-12-14T03:15:50.640Z,100378.38
2023-12-14T03:18:18.016Z,100389.56
2023-12-14T03:20:45.144Z,100388.56
2023-12-14T03:23:12.322Z,100376.47
2023-12-14T03:25:39.376Z,100383.28
2023-12-14T03:28:06.538Z,100390.25
2023-12-14T03:30:33.712Z,100394.63
2023-12-14T03:33:01.092Z,100386.84
2023-12-14T03:35:28.283Z,100384.19
2023-12-14T03:37:55.451Z,100404.31
2023-12-14T03:40:22.540Z,100407.72
2023-12-14T03:42:50.078Z,100401.78
2023-12-14T03:45:17.191Z,100418.28
2023-12-14T03:47:44.593Z,100402.66
2023-12-14T03:50:14.869Z,100414.88
2023-12-14T03:52:42.342Z,100413.88
2023-12-14T03:55:10.155Z,100409.53
2023-12-14T03:57:37.439Z,100410.41
2023-12-14T04:00:05.062Z,100406.91
2023-12-14T04:02:32.393Z,100409.50
2023-12-14T04:04:59.781Z,100407.78
2023-12-14T04:07:27.056Z,100410.44
2023-12-14T04:09:54.172Z,100419.28
2023-12-14T04:12:21.424Z,100420.16
2023-12-14T04:14:48.565Z,100403.59
2023-12-14T04:17:15.733Z,100412.28
2023-12-14T04:19:43.308Z,100417.50
2023-12-14T04:22:10.384Z,100407.97
2023-12-14T04:24:37.554Z,100425.44
2023-12-14T04:27:04.874Z,100428.03
2023-12-14T04:29:32.021Z,100436.00
2023-12-14T04:31:59.115Z,100414.25
2023-12-14T04:34:26.294Z,100426.44
2023-12-14T04:36:54.238Z,100423.91
2023-12-14T04:39:21.356Z,100421.47
2023-12-14T04:41:48.592Z,100427.53
2023-12-14T04:44:15.752Z,100432.84
2023-12-14T04:46:42.804Z,100443.28
2023-12-14T04:49:10.211Z,100439.91
2023-12-14T04:51:37.324Z,100433.81
2023-12-14T04:54:05.468Z,100452.94
2023-12-14T04:56:33.017Z,100458.22
2023-12-14T04:59:00.157Z,100455.72
2023-12-14T05:01:33.166Z,100452.25
2023-12-14T05:04:01.777Z,100450.47
2023-12-14T05:06:29.162Z,100470.56
2023-12-14T05:08:57.022Z,100461.91
2023-12-14T05:11:24.277Z,100457.53
2023-12-14T05:13:51.601Z,100477.59
2023-12-14T05:16:18.746Z,100472.41
2023-12-14T05:18:46.125Z,100474.19
2023-12-14T05:21:19.213Z,100456.69
2023-12-14T05:23:46.684Z,100471.59
2023-12-14T05:26:13.793Z,100457.69
2023-12-14T05:28:41.111Z,100476.88
2023-12-14T05:31:08.457Z,100462.13
2023-12-14T05:33:39.652Z,100463.03
2023-12-14T05:36:10.072Z,100463.84
2023-12-14T05:38:40.214Z,100468.94
2023-12-14T05:41:07.633Z,100445.38
2023-12-14T05:43:35.131Z,100440.09
2023-12-14T05:46:02.297Z,100458.44
2023-12-14T05:48:29.865Z,100441.88
2023-12-14T05:50:58.107Z,100450.47
2023-12-14T05:53:25.479Z,100455.75
2023-12-14T05:55:52.686Z,100458.44
2023-12-14T05:58:20.228Z,100436.72
2023-12-14T06:00:47.479Z,100441.00
2023-12-14T06:03:14.593Z,100450.69
2023-12-14T06:05:42.002Z,100461.06
2023-12-14T06:08:09.201Z,100459.34
2023-12-14T06:10:36.486Z,100461.06
2023-12-14T06:13:03.571Z,100444.53
2023-12-14T06:15:30.725Z,100441.94
2023-12-14T06:17:57.829Z,100461.94
2023-12-14T06:20:25.192Z,100451.50
2023-12-14T06:22:52.340Z,100449.72
2023-12-14T06:25:19.377Z,100443.53
2023-12-14T06:27:46.688Z,100456.53
2023-12-14T06:30:14.107Z,100453.84
2023-12-14T06:32:41.849Z,100445.00
2023-12-14T06:35:09.502Z,100450.28
2023-12-14T06:37:36.928Z,100470.19
2023-12-14T06:40:04.592Z,100470.19
2023-12-14T06:42:32.754Z,100471.91
2023-12-14T06:45:02.042Z,100455.16
2023-12-14T06:47:29.268Z,100450.84
2023-12-14T06:49:58.844Z,100444.66
2023-12-14T06:52:26.034Z,100432.34
2023-12-14T06:54:53.352Z,100440.94
2023-12-14T06:57:20.572Z,100438.25
2023-12-14T06:59:48.862Z,100461.69
2023-12-14T07:02:16.073Z,100450.56
2023-12-14T07:04:43.367Z,100458.41
2023-12-14T07:07:10.631Z,100454.00
2023-12-14T07:09:38.002Z,100453.00
2023-12-14T07:12:05.810Z,100447.81
2023-12-14T07:14:32.973Z,100459.88
2023-12-14T07:17:00.170Z,100457.13
2023-12-14T07:19:27.270Z,100435.38
2023-12-14T07:21:54.597Z,100455.31
2023-12-14T07:24:21.879Z,100435.03
2023-12-14T07:26:48.979Z,100437.41
2023-12-14T07:29:16.258Z,100438.81
2023-12-14T07:31:43.438Z,100458.69
2023-12-14T07:34:10.755Z,100458.41
2023-12-14T07:36:38.628Z,100460.91
2023-12-14T07:39:07.293Z,100436.38
2023-12-14T07:41:34.670Z,100432.78
2023-12-14T07:44:05.516Z,100438.75
2023-12-14T07:46:33.993Z,100435.06
2023-12-14T07:49:04.414Z,100422.91
2023-12-14T07:51:31.677Z,100430.72
2023-12-14T07:53:58.831Z,100429.69
2023-12-14T07:56:28.851Z,100418.31
2023-12-14T07:58:56.385Z,100442.88
2023-12-14T08:01:23.669Z,100437.56
2023-12-14T08:03:51.057Z,100439.28
2023-12-14T08:06:18.212Z,100430.59
2023-12-14T08:08:45.517Z,100427.00
2023-12-14T08:11:12.672Z,100420.72
2023-12-14T08:13:41.482Z,100435.38
2023-12-14T08:16:13.091Z,100413.53
2023-12-14T08:18:40.384Z,100437.16
2023-12-14T08:21:08.971Z,100408.34
2023-12-14T08:23:37.628Z,100430.91
2023-12-14T08:26:05.051Z,100411.75
2023-12-14T08:28:32.340Z,100430.09
2023-12-14T08:31:00.491Z,100436.19
2023-12-14T08:33:28.198Z,100425.56
2023-12-14T08:35:55.271Z,100418.47
2023-12-14T08:38:22.467Z,100416.56
2023-12-14T08:40:49.822Z,100415.59
2023-12-14T08:43:17.115Z,100397.16
2023-12-14T08:45:44.636Z,100422.41
2023-12-14T08:48:11.996Z,100414.38
2023-12-14T08:50:39.107Z,100406.28
2023-12-14T08:53:07.464Z,100405.25
2023-12-14T08:55:34.611Z,100412.78
2023-12-14T08:58:02.231Z,100407.56
2023-12-14T09:00:29.421Z,100408.28
2023-12-14T09:02:56.764Z,100417.69
2023-12-14T09:05:24.106Z,100394.91
2023-12-14T09:07:54.220Z,100410.25
2023-12-14T09:10:21.459Z,100400.63
2023-12-14T09:12:48.507Z,100412.59
2023-12-14T09:15:17.390Z,100402.53
2023-12-14T09:17:44.979Z,100380.59
2023-12-14T09:20:13.131Z,100378.50
2023-12-14T09:22:40.390Z,100400.03
2023-12-14T09:25:08.926Z,100373.53
2023-12-14T09:27:36.513Z,100376.69
2023-12-14T09:30:05.220Z,100380.69
2023-12-14T09:32:32.777Z,100364.69
2023-12-14T09:35:00.465Z,100374.84
2023-12-14T09:37:27.921Z,100375.56
2023-12-14T09:39:55.166Z,100367.28
2023-12-14T09:42:23.019Z,100386.91
2023-12-14T09:44:51.010Z,100368.31
2023-12-14T09:47:18.159Z,100378.16
2023-12-14T09:49:47.095Z,100366.44
2023-12-14T09:52:14.190Z,100378.91
2023-12-14T09:54:42.167Z,100367.97
2023-12-14T09:57:09.327Z,100370.22
2023-12-14T09:59:36.447Z,100378.38
2023-12-14T10:02:14.141Z,100369.97
2023-12-14T10:04:41.492Z,100357.34
2023-12-14T10:07:09.026Z,100348.84
2023-12-14T10:09:38.640Z,100350.00
2023-12-14T10:12:10.991Z,100353.00
2023-12-14T10:14:39.002Z,100348.19
2023-12-14T10:17:20.113Z,100360.50
2023-12-14T10:19:49.093Z,100349.78
2023-12-14T10:22:19.469Z,100345.00
2023-12-14T10:24:48.371Z,100339.13
2023-12-14T10:27:17.550Z,100345.56
2023-12-14T10:29:47.290Z,100337.19
2023-12-14T10:32:15.692Z,100326.06
2023-12-14T10:34:43.444Z,100324.03
2023-12-14T10:37:11.678Z,100325.69
2023-12-14T10:39:43.419Z,100331.47
2023-12-14T10:42:17.967Z,100330.50
2023-12-14T10:45:06.804Z,100341.75
2023-12-14T10:47:40.057Z,100318.88
2023-12-14T10:50:08.220Z,100324.69
2023-12-14T10:52:37.023Z,100324.50
2023-12-14T10:55:08.137Z,100320.25
2023-12-14T10:57:36.311Z,100317.88
2023-12-14T11:00:06.380Z,100333.28
2023-12-14T11:02:41.674Z,100324.91
2023-12-14T11:05:11.284Z,100339.31
2023-12-14T11:07:48.041Z,100331.94
2023-12-14T11:10:16.090Z,100322.69
2023-12-14T11:12:56.190Z,100327.56
2023-12-14T11:15:24.315Z,100325.22
2023-12-14T11:18:10.334Z,100315.06
2023-12-14T11:20:47.099Z,100307.97
2023-12-14T11:23:15.551Z,100301.00
2023-12-14T11:25:46.329Z,100299.72
2023-12-14T11:28:15.349Z,100272.13
2023-12-14T11:30:54.366Z,100285.00
2023-12-14T11:33:23.521Z,100263.44
2023-12-14T11:35:52.816Z,100273.22
2023-12-14T11:38:22.792Z,100282.03
2023-12-14T11:40:51.674Z,100282.16
2023-12-14T11:43:22.294Z,100284.69
2023-12-14T11:45:50.474Z,100272.91
2023-12-14T11:48:18.238Z,100259.41
2023-12-14T11:50:45.876Z,100274.50
2023-12-14T11:53:13.719Z,100273.78
2023-12-14T11:55:42.485Z,100266.09
2023-12-14T11:58:10.146Z,100272.91
2023-12-14T12:00:39.444Z,100268.59
2023-12-14T12:03:22.418Z,100259.78
2023-12-14T12:05:51.690Z,100260.38
2023-12-14T12:08:20.904Z,100228.72
2023-12-14T12:10:49.472Z,100235.78
2023-12-14T12:13:23.044Z,100237.00
2023-12-14T12:15:50.263Z,100226.47
2023-12-14T12:18:18.873Z,100221.97
2023-12-14T12:20:46.446Z,100227.38
2023-12-14T12:23:13.745Z,100240.47
2023-12-14T12:25:41.173Z,100242.09
2023-12-14T12:28:08.573Z,100225.06
2023-12-14T12:30:38.245Z,100241.56
2023-12-14T12:33:07.719Z,100246.47
2023-12-14T12:35:35.606Z,100238.22
2023-12-14T12:38:03.410Z,100236.91
2023-12-14T12:40:32.490Z,100253.31
2023-12-14T12:43:00.038Z,100246.00
2023-12-14T12:45:29.631Z,100230.72
2023-12-14T12:47:57.645Z,100250.50
2023-12-14T12:50:25.114Z,100240.16
2023-12-14T12:52:52.941Z,100233.38
2023-12-14T12:55:20.554Z,100234.84
2023-12-14T12:57:48.569Z,100245.44
2023-12-14T13:00:16.635Z,100254.06
2023-12-14T13:02:45.152Z,100261.88
2023-12-14T13:05:16.445Z,100250.56
2023-12-14T13:07:47.307Z,100251.53
2023-12-14T13:10:25.312Z,100225.97
2023-12-14T13:12:58.519Z,100256.81
2023-12-14T13:15:27.279Z,100257.44
2023-12-14T13:17:55.167Z,100252.69
2023-12-14T13:20:23.043Z,100249.72
2023-12-14T13:22:50.953Z,100251.19
2023-12-14T13:25:18.440Z,100247.25
2023-12-14T13:27:45.837Z,100262.34
2023-12-14T13:30:19.092Z,100268.53
2023-12-14T13:32:47.419Z,100253.19
2023-12-14T13:35:14.813Z,100255.97
2023-12-14T13:37:43.224Z,100260.63
2023-12-14T13:40:13.990Z,100265.00
2023-12-14T13:42:50.856Z,100264.91
2023-12-14T13:45:29.331Z,100234.03
2023-12-14T13:47:56.642Z,100270.59
2023-12-14T13:50:24.224Z,100261.38
2023-12-14T13:52:51.369Z,100259.66
2023-12-14T13:55:18.527Z,100254.72
2023-12-14T13:57:45.621Z,100272.56
2023-12-14T14:00:13.490Z,100277.72
2023-12-14T14:02:40.581Z,100264.00
2023-12-14T14:05:07.972Z,100270.38
2023-12-14T14:07:35.780Z,100267.19
2023-12-14T14:10:03.181Z,100278.72
2023-12-14T14:12:30.222Z,100253.56
2023-12-14T14:15:00.013Z,100262.41
2023-12-14T14:17:27.258Z,100264.53
2023-12-14T14:19:54.467Z,100252.66
2023-12-14T14:22:24.949Z,100264.34
2023-12-14T14:24:52.938Z,100263.72
2023-12-14T14:27:20.209Z,100279.81
2023-12-14T14:29:47.514Z,100265.56
2023-12-14T14:32:15.400Z,100257.94
2023-12-14T14:34:42.847Z,100263.56
2023-12-14T14:37:10.190Z,100260.34
2023-12-14T14:39:40.824Z,100262.47
2023-12-14T14:42:09.209Z,100267.41
2023-12-14T14:44:36.572Z,100283.09
2023-12-14T14:47:04.818Z,100277.94
2023-12-14T14:49:32.186Z,100286.06
2023-12-14T14:51:59.331Z,100278.69
2023-12-14T14:54:26.914Z,100290.84
2023-12-14T14:56:54.472Z,100282.53
2023-12-14T14:59:21.512Z,100294.41
2023-12-14T15:01:49.298Z,100284.69
2023-12-14T15:04:16.474Z,100292.88
2023-12-14T15:06:43.736Z,100306.03
2023-12-14T15:09:11.198Z,100298.63
2023-12-14T15:11:38.323Z,100299.72
2023-12-14T15:14:05.536Z,100303.47
2023-12-14T15:16:32.758Z,100301.91
2023-12-14T15:18:59.789Z,100293.47
2023-12-14T15:21:26.976Z,100306.91
2023-12-14T15:23:55.554Z,100311.91
2023-12-14T15:26:23.315Z,100322.78
2023-12-14T15:28:50.448Z,100310.78
2023-12-14T15:31:17.747Z,100324.91
2023-12-14T15:33:44.900Z,100316.50
2023-12-14T15:36:12.160Z,100318.44
2023-12-14T15:38:41.803Z,100316.09
2023-12-14T15:41:09.116Z,100324.25
2023-12-14T15:43:36.349Z,100323.59
2023-12-14T15:46:03.617Z,100327.03
2023-12-14T15:48:31.176Z,100320.84
2023-12-14T15:50:58.415Z,100325.19
2023-12-14T15:53:25.591Z,100327.03
2023-12-14T15:55:53.038Z,100340.44
2023-12-14T15:58:20.154Z,100334.75
2023-12-14T16:00:47.335Z,100341.75
2023-12-14T16:03:14.429Z,100323.59
2023-12-14T16:05:41.805Z,100330.78
2023-12-14T16:08:12.721Z,100350.88
2023-12-14T16:10:40.253Z,100348.34
2023-12-14T16:13:07.366Z,100331.03
2023-12-14T16:15:35.251Z,100331.41
2023-12-14T16:18:02.455Z,100341.47
2023-12-14T16:20:29.719Z,100351.25
2023-12-14T16:22:57.331Z,100345.53
2023-12-14T16:25:24.501Z,100334.28
2023-12-14T16:27:51.655Z,100343.88
2023-12-14T16:30:19.257Z,100339.88
2023-12-14T16:32:46.523Z,100337.22
2023-12-14T16:35:15.372Z,100353.84
2023-12-14T16:37:42.596Z,100327.00
2023-12-14T16:40:10.173Z,100330.78
2023-12-14T16:42:37.644Z,100336.09
2023-12-14T16:45:06.350Z,100344.09
2023-12-14T16:47:33.557Z,100322.03
2023-12-14T16:50:00.876Z,100336.09
2023-12-14T16:52:28.077Z,100339.78
2023-12-14T16:54:56.021Z,100336.31
2023-12-14T16:57:23.106Z,100351.22
2023-12-14T16:59:50.127Z,100352.16
2023-12-14T17:02:17.761Z,100341.75
2023-12-14T17:04:45.343Z,100350.41
2023-12-14T17:07:12.638Z,100357.31
2023-12-14T17:09:39.877Z,100349.47
2023-12-14T17:12:07.335Z,100355.41
2023-12-14T17:14:34.507Z,100340.56
2023-12-14T17:17:03.971Z,100335.16
2023-12-14T17:19:31.671Z,100345.53
2023-12-14T17:21:58.726Z,100350.50
2023-12-14T17:24:26.042Z,100357.44
2023-12-14T17:26:53.051Z,100351.34
2023-12-14T17:29:20.210Z,100355.72
2023-12-14T17:31:47.517Z,100365.31
2023-12-14T17:34:14.829Z,100366.22
2023-12-14T17:36:42.158Z,100354.03
2023-12-14T17:39:09.588Z,100366.94
2023-12-14T17:41:36.613Z,100374.06
2023-12-14T17:44:04.242Z,100341.81
2023-12-14T17:46:31.354Z,100357.72
2023-12-14T17:48:59.355Z,100377.69
2023-12-14T17:51:29.158Z,100362.09
2023-12-14T17:53:56.492Z,100373.59
2023-12-14T17:56:24.333Z,100392.78
2023-12-14T17:58:51.482Z,100391.91
2023-12-14T18:01:18.825Z,100395.47
2023-12-14T18:03:46.516Z,100374.59
2023-12-14T18:06:13.919Z,100384.13
2023-12-14T18:08:41.546Z,100373.78
2023-12-14T18:11:08.823Z,100373.88
2023-12-14T18:13:36.103Z,100364.25
2023-12-14T18:16:03.965Z,100370.19
2023-12-14T18:18:31.274Z,100371.88
2023-12-14T18:20:58.435Z,100379.41
2023-12-14T18:23:25.625Z,100379.41
2023-12-14T18:25:52.914Z,100368.19
2023-12-14T18:28:20.325Z,100364.56
2023-12-14T18:30:47.575Z,100365.53
2023-12-14T18:33:15.117Z,100374.00
2023-12-14T18:35:42.292Z,100387.19
2023-12-14T18:38:09.724Z,100372.41
2023-12-14T18:40:37.342Z,100380.06
2023-12-14T18:43:04.511Z,100377.78
2023-12-14T18:45:31.534Z,100375.59
2023-12-14T18:47:59.117Z,100385.38
2023-12-14T18:50:26.590Z,100387.19
2023-12-14T18:52:58.208Z,100376.72
2023-12-14T18:55:25.939Z,100376.72
2023-12-14T18:57:53.713Z,100370.66
2023-12-14T19:00:23.400Z,100395.03
2023-12-14T19:02:50.612Z,100379.13
2023-12-14T19:05:22.226Z,100371.34
2023-12-14T19:07:49.430Z,100392.31
2023-12-14T19:10:16.703Z,100400.22
2023-12-14T19:12:43.887Z,100376.47
2023-12-14T19:15:11.243Z,100385.00
2023-12-14T19:17:39.624Z,100390.31
2023-12-14T19:20:11.121Z,100371.94
2023-12-14T19:22:41.858Z,100371.72
2023-12-14T19:25:11.494Z,100360.22
2023-12-14T19:27:40.070Z,100359.38
2023-12-14T19:30:09.297Z,100382.84
2023-12-14T19:32:37.486Z,100364.56
2023-12-14T19:35:05.164Z,100374.94
2023-12-14T19:37:32.924Z,100374.78
2023-12-14T19:40:02.304Z,100382.00
2023-12-14T19:42:32.064Z,100370.59
2023-12-14T19:45:02.712Z,100367.34
2023-12-14T19:47:30.069Z,100365.69
2023-12-14T19:50:01.317Z,100377.25
2023-12-14T19:52:29.835Z,100385.91
2023-12-14T19:54:57.822Z,100382.81
2023-12-14T19:57:26.610Z,100403.94
2023-12-14T19:59:54.014Z,100382.38
2023-12-14T20:02:22.222Z,100378.41
2023-12-14T20:04:49.385Z,100391.97
2023-12-14T20:07:16.689Z,100378.00
2023-12-14T20:09:54.052Z,100392.03
2023-12-14T20:12:25.487Z,100396.50
2023-12-14T20:14:52.597Z,100383.72
2023-12-14T20:17:19.912Z,100393.53
2023-12-14T20:19:47.201Z,100396.28
2023-12-14T20:22:15.056Z,100397.22
2023-12-14T20:24:44.016Z,100394.53
2023-12-14T20:27:11.095Z,100412.91
2023-12-14T20:29:38.421Z,100381.97
2023-12-14T20:32:06.091Z,100439.31
2023-12-14T20:34:33.290Z,100411.38
2023-12-14T20:37:00.839Z,100394.47
2023-12-14T20:39:28.082Z,100412.84
2023-12-14T20:41:55.236Z,100420.56
2023-12-14T20:44:22.752Z,100413.41
2023-12-14T20:46:49.956Z,100421.91
2023-12-14T20:49:17.201Z,100438.59
2023-12-14T20:51:44.653Z,100427.22
2023-12-14T20:54:11.916Z,100442.00
2023-12-14T20:56:39.283Z,100432.47
2023-12-14T20:59:06.721Z,100429.03
2023-12-14T21:01:34.575Z,100442.84
2023-12-14T21:04:01.795Z,100442.94
2023-12-14T21:06:30.982Z,100443.13
2023-12-14T21:08:59.887Z,100445.38
2023-12-14T21:11:27.135Z,100426.22
2023-12-14T21:13:55.041Z,100454.97
2023-12-14T21:16:22.372Z,100462.09
2023-12-14T21:18:49.633Z,100455.22
2023-12-14T21:21:17.006Z,100460.63
2023-12-14T21:23:44.180Z,100466.13
2023-12-14T21:26:13.731Z,100468.19
2023-12-14T21:28:40.932Z,100472.13
2023-12-14T21:31:08.400Z,100473.91
2023-12-14T21:33:35.816Z,100459.34
2023-12-14T21:36:03.595Z,100470.91
2023-12-14T21:38:33.477Z,100458.97
2023-12-14T21:41:00.868Z,100457.44
2023-12-14T21:43:28.408Z,100472.38
2023-12-14T21:45:55.667Z,100472.75
2023-12-14T21:48:23.424Z,100477.16
2023-12-14T21:50:50.693Z,100484.25
2023-12-14T21:53:18.199Z,100474.59
2023-12-14T21:55:45.346Z,100472.88
2023-12-14T21:58:12.493Z,100472.97
2023-12-14T22:00:39.673Z,100459.63
2023-12-14T22:03:06.841Z,100468.34
2023-12-14T22:05:34.307Z,100465.75
2023-12-14T22:08:01.752Z,100445.66
2023-12-14T22:10:28.906Z,100459.75
2023-12-14T22:12:58.298Z,100437.00
2023-12-14T22:15:25.968Z,100449.13
2023-12-14T22:17:53.204Z,100437.69
2023-12-14T22:20:20.495Z,100449.50
2023-12-14T22:22:47.736Z,100427.50
2023-12-14T22:25:15.008Z,100443.28
2023-12-14T22:27:42.160Z,100433.78
2023-12-14T22:30:09.941Z,100433.09
2023-12-14T22:32:37.357Z,100427.97
2023-12-14T22:35:04.834Z,100445.59
2023-12-14T22:37:32.035Z,100440.44
2023-12-14T22:39:59.106Z,100436.25
2023-12-14T22:42:26.255Z,100437.50
2023-12-14T22:44:53.523Z,100418.28
2023-12-14T22:47:20.648Z,100423.69
2023-12-14T22:49:47.883Z,100431.94
2023-12-14T22:52:15.154Z,100438.97
2023-12-14T22:54:42.297Z,100446.38
2023-12-14T22:57:09.453Z,100426.41
2023-12-14T22:59:42.384Z,100431.00
2023-12-14T23:02:09.693Z,100443.41
2023-12-14T23:04:37.857Z,100430.56
2023-12-14T23:07:05.464Z,100437.50
2023-12-14T23:09:32.593Z,100438.50
2023-12-14T23:12:00.496Z,100428.84
2023-12-14T23:14:28.206Z,100424.44
2023-12-14T23:16:57.161Z,100424.44
2023-12-14T23:19:24.435Z,100407.03
2023-12-14T23:21:51.779Z,100413.06
2023-12-14T23:24:19.041Z,100419.06
2023-12-14T23:26:46.327Z,100414.84
2023-12-14T23:29:13.774Z,100422.59
2023-12-14T23:31:41.038Z,100433.13
2023-12-14T23:34:08.273Z,100419.44
2023-12-14T23:36:35.656Z,100407.19
2023-12-14T23:39:03.931Z,100425.69
2023-12-14T23:41:31.290Z,100414.59
2023-12-14T23:44:00.777Z,100432.31
2023-12-14T23:46:28.447Z,100430.75
2023-12-14T23:48:55.866Z,100450.88
2023-12-14T23:51:23.496Z,100450.94
2023-12-14T23:53:50.716Z,100456.25
2023-12-14T23:56:17.981Z,100449.25
2023-12-14T23:58:45.576Z,100459.84
